createdAt,value
2023-04-30T00:00:36.266Z,99268.98
2023-04-30T00:03:24.694Z,99267.60
2023-04-30T00:05:52.785Z,99267.02
2023-04-30T00:08:20.710Z,99271.16
2023-04-30T00:10:48.820Z,99268.46
2023-04-30T00:13:17.126Z,99273.67
2023-04-30T00:15:45.162Z,99273.97
2023-04-30T00:18:13.797Z,99274.23
2023-04-30T00:20:41.775Z,99273.79
2023-04-30T00:23:09.679Z,99273.25
2023-04-30T00:25:37.529Z,99276.71
2023-04-30T00:28:05.510Z,99279.17
2023-04-30T00:30:33.350Z,99281.25
2023-04-30T00:33:01.333Z,99282.23
2023-04-30T00:35:30.119Z,99279.06
2023-04-30T00:37:58.080Z,99287.75
2023-04-30T00:40:26.993Z,99294.15
2023-04-30T00:42:55.959Z,99288.48
2023-04-30T00:45:24.091Z,99290.58
2023-04-30T00:47:52.291Z,99293.98
2023-04-30T00:50:22.406Z,99297.17
2023-04-30T00:52:50.900Z,99298.68
2023-04-30T00:55:19.102Z,99297.59
2023-04-30T00:57:47.149Z,99299.74
2023-04-30T01:00:15.593Z,99300.20
2023-04-30T01:02:44.149Z,99300.10
2023-04-30T01:05:12.172Z,99302.36
2023-04-30T01:07:45.225Z,99300.38
2023-04-30T01:10:14.691Z,99301.86
2023-04-30T01:13:00.925Z,99301.15
2023-04-30T01:15:42.440Z,99303.75
2023-04-30T01:18:28.374Z,99305.37
2023-04-30T01:21:02.467Z,99307.27
2023-04-30T01:23:42.546Z,99308.71
2023-04-30T01:26:35.550Z,99308.32
2023-04-30T01:29:05.317Z,99308.45
2023-04-30T01:31:33.252Z,99309.89
2023-04-30T01:34:01.230Z,99311.86
2023-04-30T01:36:58.856Z,99314.23
2023-04-30T01:39:35.800Z,99315.80
2023-04-30T01:42:25.846Z,99317.52
2023-04-30T01:45:15.779Z,99322.81
2023-04-30T01:48:13.802Z,99326.45
2023-04-30T01:50:52.396Z,99324.69
2023-04-30T01:53:39.426Z,99321.48
2023-04-30T01:56:11.629Z,99322.64
2023-04-30T01:58:40.653Z,99321.48
2023-04-30T02:01:29.347Z,99319.75
2023-04-30T02:03:58.003Z,99325.50
2023-04-30T02:06:30.425Z,99327.60
2023-04-30T02:09:04.339Z,99328.39
2023-04-30T02:11:32.607Z,99334.77
2023-04-30T02:14:00.688Z,99334.80
2023-04-30T02:16:28.646Z,99338.56
2023-04-30T02:18:56.648Z,99342.14
2023-04-30T02:21:24.549Z,99345.58
2023-04-30T02:23:52.446Z,99349.30
2023-04-30T02:26:21.352Z,99353.36
2023-04-30T02:28:49.345Z,99361.08
2023-04-30T02:31:17.390Z,99361.91
2023-04-30T02:33:46.888Z,99361.54
2023-04-30T02:36:14.828Z,99364.12
2023-04-30T02:38:42.782Z,99361.52
2023-04-30T02:41:10.716Z,99362.70
2023-04-30T02:43:38.852Z,99363.38
2023-04-30T02:46:06.841Z,99366.36
2023-04-30T02:48:34.799Z,99372.09
2023-04-30T02:51:04.073Z,99372.90
2023-04-30T02:53:31.957Z,99376.39
2023-04-30T02:55:59.880Z,99375.98
2023-04-30T02:58:27.845Z,99378.87
2023-04-30T03:00:56.155Z,99381.68
2023-04-30T03:03:24.240Z,99385.15
2023-04-30T03:05:52.249Z,99388.27
2023-04-30T03:08:20.103Z,99397.95
2023-04-30T03:10:48.223Z,99399.33
2023-04-30T03:13:16.112Z,99400.19
2023-04-30T03:15:44.362Z,99399.98
2023-04-30T03:18:13.474Z,99397.81
2023-04-30T03:20:42.272Z,99403.97
2023-04-30T03:23:10.271Z,99408.16
2023-04-30T03:25:38.150Z,99411.09
2023-04-30T03:28:06.412Z,99410.06
2023-04-30T03:30:34.424Z,99416.54
2023-04-30T03:33:02.434Z,99425.07
2023-04-30T03:35:30.430Z,99422.37
2023-04-30T03:37:58.360Z,99428.14
2023-04-30T03:40:26.665Z,99430.83
2023-04-30T03:42:56.052Z,99432.88
2023-04-30T03:45:24.125Z,99435.21
2023-04-30T03:47:52.767Z,99434.77
2023-04-30T03:50:20.814Z,99436.14
2023-04-30T03:52:48.765Z,99432.98
2023-04-30T03:55:17.116Z,99436.95
2023-04-30T03:57:45.279Z,99434.50
2023-04-30T04:00:13.652Z,99434.79
2023-04-30T04:02:43.157Z,99439.84
2023-04-30T04:05:11.844Z,99441.85
2023-04-30T04:07:40.134Z,99442.82
2023-04-30T04:10:08.866Z,99447.91
2023-04-30T04:12:37.663Z,99449.02
2023-04-30T04:15:06.207Z,99454.83
2023-04-30T04:17:34.193Z,99463.31
2023-04-30T04:20:06.084Z,99465.27
2023-04-30T04:22:35.396Z,99467.55
2023-04-30T04:25:03.347Z,99473.19
2023-04-30T04:27:32.833Z,99481.36
2023-04-30T04:30:02.019Z,99482.58
2023-04-30T04:32:30.730Z,99487.93
2023-04-30T04:34:59.309Z,99494.14
2023-04-30T04:37:27.382Z,99493.70
2023-04-30T04:39:55.540Z,99496.61
2023-04-30T04:42:23.882Z,99502.29
2023-04-30T04:44:51.997Z,99500.78
2023-04-30T04:47:21.943Z,99507.80
2023-04-30T04:49:49.913Z,99508.63
2023-04-30T04:52:17.745Z,99509.64
2023-04-30T04:54:45.654Z,99504.33
2023-04-30T04:57:13.638Z,99512.82
2023-04-30T04:59:41.546Z,99513.05
2023-04-30T05:02:09.663Z,99519.19
2023-04-30T05:04:38.192Z,99518.30
2023-04-30T05:07:06.240Z,99519.39
2023-04-30T05:09:34.165Z,99520.14
2023-04-30T05:12:02.391Z,99524.92
2023-04-30T05:14:30.342Z,99526.94
2023-04-30T05:16:58.216Z,99528.11
2023-04-30T05:19:26.343Z,99534.05
2023-04-30T05:21:54.290Z,99538.95
2023-04-30T05:24:22.267Z,99541.72
2023-04-30T05:26:50.192Z,99541.36
2023-04-30T05:29:18.063Z,99546.70
2023-04-30T05:31:45.985Z,99549.40
2023-04-30T05:34:14.046Z,99547.92
2023-04-30T05:36:43.196Z,99549.88
2023-04-30T05:39:12.414Z,99548.98
2023-04-30T05:41:40.433Z,99551.37
2023-04-30T05:44:08.366Z,99559.92
2023-04-30T05:46:36.467Z,99561.98
2023-04-30T05:49:04.373Z,99562.85
2023-04-30T05:51:32.650Z,99565.15
2023-04-30T05:54:02.457Z,99567.66
2023-04-30T05:56:31.017Z,99565.15
2023-04-30T05:58:58.919Z,99573.34
2023-04-30T06:01:28.852Z,99572.96
2023-04-30T06:03:56.937Z,99570.77
2023-04-30T06:06:24.921Z,99568.55
2023-04-30T06:08:52.796Z,99575.41
2023-04-30T06:11:21.110Z,99573.14
2023-04-30T06:13:49.544Z,99567.24
2023-04-30T06:16:17.634Z,99570.80
2023-04-30T06:18:45.842Z,99576.84
2023-04-30T06:21:13.719Z,99574.08
2023-04-30T06:23:41.681Z,99567.45
2023-04-30T06:26:09.661Z,99565.98
2023-04-30T06:28:37.525Z,99565.80
2023-04-30T06:31:05.652Z,99562.98
2023-04-30T06:33:33.603Z,99561.36
2023-04-30T06:36:01.515Z,99560.11
2023-04-30T06:38:29.530Z,99566.83
2023-04-30T06:40:57.596Z,99569.92
2023-04-30T06:43:25.569Z,99567.67
2023-04-30T06:45:53.574Z,99571.13
2023-04-30T06:48:21.715Z,99576.11
2023-04-30T06:50:49.635Z,99578.10
2023-04-30T06:53:17.597Z,99576.64
2023-04-30T06:55:48.716Z,99578.76
2023-04-30T06:58:16.731Z,99583.55
2023-04-30T07:00:44.617Z,99586.89
2023-04-30T07:03:12.810Z,99584.16
2023-04-30T07:05:41.642Z,99581.88
2023-04-30T07:08:09.500Z,99587.05
2023-04-30T07:10:37.470Z,99590.48
2023-04-30T07:13:05.472Z,99595.52
2023-04-30T07:15:33.557Z,99594.09
2023-04-30T07:18:01.529Z,99598.50
2023-04-30T07:20:30.196Z,99595.45
2023-04-30T07:22:58.518Z,99596.63
2023-04-30T07:25:26.424Z,99595.13
2023-04-30T07:27:55.440Z,99595.95
2023-04-30T07:30:25.129Z,99589.99
2023-04-30T07:32:53.442Z,99592.30
2023-04-30T07:35:21.467Z,99591.27
2023-04-30T07:37:49.391Z,99595.61
2023-04-30T07:40:28.616Z,99599.06
2023-04-30T07:43:04.682Z,99603.77
2023-04-30T07:45:33.966Z,99602.77
2023-04-30T07:48:01.934Z,99602.44
2023-04-30T07:50:33.930Z,99605.34
2023-04-30T07:53:02.341Z,99614.36
2023-04-30T07:55:30.491Z,99622.21
2023-04-30T07:57:58.917Z,99620.77
2023-04-30T08:00:26.944Z,99621.48
2023-04-30T08:02:54.976Z,99627.48
2023-04-30T08:05:23.034Z,99627.21
2023-04-30T08:07:51.326Z,99626.11
2023-04-30T08:10:19.348Z,99629.86
2023-04-30T08:12:47.431Z,99627.55
2023-04-30T08:15:15.625Z,99626.95
2023-04-30T08:17:43.718Z,99624.44
2023-04-30T08:20:11.905Z,99622.59
2023-04-30T08:22:39.759Z,99622.30
2023-04-30T08:25:10.644Z,99632.48
2023-04-30T08:27:39.330Z,99635.33
2023-04-30T08:30:07.883Z,99633.14
2023-04-30T08:32:36.585Z,99633.59
2023-04-30T08:35:05.895Z,99638.42
2023-04-30T08:37:34.431Z,99632.23
2023-04-30T08:40:02.361Z,99634.88
2023-04-30T08:42:34.230Z,99638.34
2023-04-30T08:45:03.871Z,99633.88
2023-04-30T08:47:32.123Z,99647.54
2023-04-30T08:50:00.378Z,99639.54
2023-04-30T08:52:30.194Z,99637.58
2023-04-30T08:55:01.385Z,99643.40
2023-04-30T08:57:29.288Z,99639.25
2023-04-30T08:59:57.416Z,99648.08
2023-04-30T09:02:25.616Z,99643.59
2023-04-30T09:04:53.688Z,99643.59
2023-04-30T09:07:25.388Z,99643.92
2023-04-30T09:09:54.056Z,99637.42
2023-04-30T09:12:22.888Z,99640.29
2023-04-30T09:15:06.193Z,99650.84
2023-04-30T09:17:35.039Z,99653.88
2023-04-30T09:20:13.546Z,99650.39
2023-04-30T09:22:42.414Z,99644.45
2023-04-30T09:25:11.437Z,99636.04
2023-04-30T09:27:39.273Z,99638.77
2023-04-30T09:30:08.063Z,99649.23
2023-04-30T09:32:36.215Z,99651.39
2023-04-30T09:35:04.915Z,99647.55
2023-04-30T09:37:37.573Z,99637.48
2023-04-30T09:40:06.122Z,99635.67
2023-04-30T09:42:34.150Z,99637.52
2023-04-30T09:45:04.783Z,99644.76
2023-04-30T09:47:33.116Z,99647.08
2023-04-30T09:50:01.052Z,99653.20
2023-04-30T09:52:29.006Z,99649.94
2023-04-30T09:54:56.990Z,99645.01
2023-04-30T09:57:26.969Z,99644.53
2023-04-30T09:59:56.066Z,99635.87
2023-04-30T10:02:24.889Z,99642.34
2023-04-30T10:04:58.262Z,99636.73
2023-04-30T10:07:34.286Z,99633.69
2023-04-30T10:10:10.034Z,99630.86
2023-04-30T10:12:43.264Z,99637.24
2023-04-30T10:15:31.266Z,99635.13
2023-04-30T10:18:05.456Z,99629.77
2023-04-30T10:20:39.269Z,99637.59
2023-04-30T10:23:08.576Z,99634.30
2023-04-30T10:25:38.921Z,99628.73
2023-04-30T10:28:08.688Z,99632.02
2023-04-30T10:30:36.656Z,99627.42
2023-04-30T10:33:29.198Z,99627.50
2023-04-30T10:36:00.369Z,99623.35
2023-04-30T10:38:30.613Z,99632.25
2023-04-30T10:41:02.384Z,99616.67
2023-04-30T10:43:31.553Z,99624.57
2023-04-30T10:46:00.266Z,99623.05
2023-04-30T10:48:31.164Z,99620.20
2023-04-30T10:50:59.823Z,99625.86
2023-04-30T10:53:32.031Z,99633.17
2023-04-30T10:56:06.871Z,99624.93
2023-04-30T10:58:37.178Z,99616.31
2023-04-30T11:01:15.866Z,99621.07
2023-04-30T11:04:08.591Z,99624.23
2023-04-30T11:06:54.796Z,99621.43
2023-04-30T11:09:37.538Z,99625.09
2023-04-30T11:12:30.550Z,99620.58
2023-04-30T11:15:06.862Z,99618.63
2023-04-30T11:17:35.069Z,99616.23
2023-04-30T11:20:03.541Z,99613.58
2023-04-30T11:22:36.127Z,99617.94
2023-04-30T11:25:05.889Z,99618.39
2023-04-30T11:27:34.993Z,99610.00
2023-04-30T11:30:10.177Z,99619.83
2023-04-30T11:32:39.777Z,99613.77
2023-04-30T11:35:08.132Z,99612.84
2023-04-30T11:37:38.712Z,99610.27
2023-04-30T11:40:09.899Z,99607.09
2023-04-30T11:42:46.158Z,99608.88
2023-04-30T11:45:23.527Z,99607.12
2023-04-30T11:47:54.069Z,99607.34
2023-04-30T11:50:31.255Z,99602.73
2023-04-30T11:53:03.346Z,99601.16
2023-04-30T11:55:31.284Z,99598.27
2023-04-30T11:58:00.067Z,99602.74
2023-04-30T12:00:29.788Z,99603.00
2023-04-30T12:03:01.169Z,99601.27
2023-04-30T12:05:29.391Z,99599.77
2023-04-30T12:08:10.808Z,99606.17
2023-04-30T12:10:39.069Z,99608.27
2023-04-30T12:13:07.091Z,99608.39
2023-04-30T12:15:35.190Z,99606.36
2023-04-30T12:18:13.533Z,99603.63
2023-04-30T12:20:42.379Z,99602.05
2023-04-30T12:23:10.498Z,99599.24
2023-04-30T12:25:45.111Z,99599.87
2023-04-30T12:28:13.086Z,99603.70
2023-04-30T12:30:43.677Z,99593.11
2023-04-30T12:33:12.102Z,99603.70
2023-04-30T12:35:43.035Z,99601.58
2023-04-30T12:38:11.510Z,99594.91
2023-04-30T12:40:40.874Z,99606.41
2023-04-30T12:43:09.546Z,99595.45
2023-04-30T12:45:51.517Z,99595.20
2023-04-30T12:48:27.926Z,99596.08
2023-04-30T12:51:01.263Z,99594.90
2023-04-30T12:53:29.898Z,99591.16
2023-04-30T12:56:12.477Z,99587.04
2023-04-30T12:58:40.675Z,99580.34
2023-04-30T13:01:13.280Z,99588.86
2023-04-30T13:03:41.956Z,99588.91
2023-04-30T13:06:10.578Z,99581.09
2023-04-30T13:08:49.753Z,99579.32
2023-04-30T13:11:27.015Z,99573.10
2023-04-30T13:13:55.940Z,99576.17
2023-04-30T13:16:27.431Z,99574.19
2023-04-30T13:18:55.496Z,99572.31
2023-04-30T13:21:25.049Z,99574.77
2023-04-30T13:23:54.542Z,99574.33
2023-04-30T13:26:23.787Z,99576.21
2023-04-30T13:28:52.290Z,99576.67
2023-04-30T13:31:20.608Z,99574.51
2023-04-30T13:33:49.270Z,99571.97
2023-04-30T13:36:17.239Z,99570.45
2023-04-30T13:38:45.181Z,99566.68
2023-04-30T13:41:13.485Z,99560.34
2023-04-30T13:43:46.339Z,99560.89
2023-04-30T13:46:15.163Z,99557.65
2023-04-30T13:48:43.219Z,99558.16
2023-04-30T13:51:11.212Z,99559.10
2023-04-30T13:53:40.516Z,99563.55
2023-04-30T13:56:08.515Z,99562.67
2023-04-30T13:58:36.407Z,99566.66
2023-04-30T14:01:04.381Z,99568.00
2023-04-30T14:03:33.034Z,99565.60
2023-04-30T14:06:01.374Z,99562.25
2023-04-30T14:08:30.797Z,99557.52
2023-04-30T14:10:58.742Z,99553.36
2023-04-30T14:13:26.694Z,99554.27
2023-04-30T14:15:56.153Z,99547.48
2023-04-30T14:18:24.249Z,99539.67
2023-04-30T14:20:52.324Z,99544.86
2023-04-30T14:23:20.181Z,99546.27
2023-04-30T14:25:48.328Z,99549.12
2023-04-30T14:28:16.440Z,99549.05
2023-04-30T14:30:44.427Z,99550.64
2023-04-30T14:33:13.032Z,99554.59
2023-04-30T14:35:41.652Z,99546.39
2023-04-30T14:38:09.682Z,99538.23
2023-04-30T14:40:37.620Z,99538.91
2023-04-30T14:43:05.991Z,99538.94
2023-04-30T14:45:34.162Z,99536.55
2023-04-30T14:48:03.965Z,99532.11
2023-04-30T14:50:33.363Z,99526.56
2023-04-30T14:53:01.376Z,99527.52
2023-04-30T14:55:29.640Z,99535.13
2023-04-30T14:57:58.935Z,99532.02
2023-04-30T15:00:27.992Z,99532.06
2023-04-30T15:02:56.050Z,99532.62
2023-04-30T15:05:24.278Z,99533.79
2023-04-30T15:07:52.624Z,99533.42
2023-04-30T15:10:20.693Z,99535.92
2023-04-30T15:12:48.742Z,99536.04
2023-04-30T15:15:18.948Z,99527.61
2023-04-30T15:17:47.166Z,99531.04
2023-04-30T15:20:15.139Z,99528.52
2023-04-30T15:22:43.011Z,99528.34
2023-04-30T15:25:10.938Z,99521.73
2023-04-30T15:27:39.827Z,99520.58
2023-04-30T15:30:08.316Z,99516.14
2023-04-30T15:32:36.366Z,99521.64
2023-04-30T15:35:04.710Z,99517.95
2023-04-30T15:37:34.566Z,99515.38
2023-04-30T15:40:04.779Z,99516.75
2023-04-30T15:42:33.398Z,99516.60
2023-04-30T15:45:01.371Z,99517.79
2023-04-30T15:47:29.462Z,99520.50
2023-04-30T15:49:57.486Z,99520.16
2023-04-30T15:52:25.480Z,99519.33
2023-04-30T15:54:53.474Z,99519.47
2023-04-30T15:57:21.748Z,99521.16
2023-04-30T15:59:49.729Z,99521.41
2023-04-30T16:02:17.658Z,99516.17
2023-04-30T16:04:45.797Z,99510.88
2023-04-30T16:07:13.688Z,99513.73
2023-04-30T16:09:45.697Z,99516.02
2023-04-30T16:12:13.696Z,99510.89
2023-04-30T16:14:42.032Z,99516.17
2023-04-30T16:17:10.040Z,99514.45
2023-04-30T16:19:37.952Z,99512.08
2023-04-30T16:22:06.134Z,99511.27
2023-04-30T16:24:34.056Z,99505.79
2023-04-30T16:27:02.020Z,99502.98
2023-04-30T16:29:30.089Z,99499.23
2023-04-30T16:31:58.153Z,99499.83
2023-04-30T16:34:26.282Z,99502.20
2023-04-30T16:36:54.169Z,99502.20
2023-04-30T16:39:22.371Z,99504.20
2023-04-30T16:41:50.329Z,99506.98
2023-04-30T16:44:18.319Z,99504.73
2023-04-30T16:46:46.210Z,99506.66
2023-04-30T16:49:14.059Z,99505.45
2023-04-30T16:51:41.933Z,99504.92
2023-04-30T16:54:09.872Z,99502.71
2023-04-30T16:56:37.815Z,99506.90
2023-04-30T16:59:05.850Z,99503.67
2023-04-30T17:01:34.288Z,99500.73
2023-04-30T17:04:02.302Z,99503.71
2023-04-30T17:06:30.298Z,99501.02
2023-04-30T17:08:59.321Z,99505.34
2023-04-30T17:11:27.890Z,99505.20
2023-04-30T17:13:55.842Z,99512.22
2023-04-30T17:16:23.897Z,99512.08
2023-04-30T17:18:51.846Z,99512.69
2023-04-30T17:21:19.794Z,99512.21
2023-04-30T17:23:47.770Z,99513.20
2023-04-30T17:26:15.669Z,99513.90
2023-04-30T17:28:43.611Z,99516.80
2023-04-30T17:31:11.560Z,99512.90
2023-04-30T17:36:08.779Z,99511.44
2023-04-30T17:38:37.257Z,99511.60
2023-04-30T17:41:05.244Z,99514.31
2023-04-30T17:43:33.203Z,99516.35
2023-04-30T17:46:01.854Z,99517.79
2023-04-30T17:48:31.119Z,99519.20
2023-04-30T17:50:59.106Z,99517.73
2023-04-30T17:53:27.042Z,99522.39
2023-04-30T17:55:55.066Z,99522.88
2023-04-30T17:58:23.018Z,99522.90
2023-04-30T18:00:51.006Z,99520.63
2023-04-30T18:03:19.276Z,99522.45
2023-04-30T18:05:47.304Z,99522.68
2023-04-30T18:08:15.216Z,99527.04
2023-04-30T18:10:43.306Z,99528.95
2023-04-30T18:13:11.622Z,99528.65
2023-04-30T18:15:40.079Z,99537.33
2023-04-30T18:18:08.220Z,99544.02
2023-04-30T18:20:36.395Z,99546.84
2023-04-30T18:23:07.815Z,99551.03
2023-04-30T18:25:37.826Z,99551.39
2023-04-30T18:28:07.939Z,99551.54
2023-04-30T18:30:36.924Z,99555.66
2023-04-30T18:33:05.121Z,99553.73
2023-04-30T18:35:34.136Z,99557.11
2023-04-30T18:38:02.111Z,99555.75
2023-04-30T18:40:30.145Z,99555.27
2023-04-30T18:42:58.996Z,99559.16
2023-04-30T18:45:26.952Z,99561.15
2023-04-30T18:47:55.705Z,99561.16
2023-04-30T18:50:24.765Z,99560.88
2023-04-30T18:52:53.220Z,99562.83
2023-04-30T18:55:21.122Z,99561.09
2023-04-30T18:57:50.665Z,99565.33
2023-04-30T19:00:18.672Z,99563.75
2023-04-30T19:02:46.731Z,99563.39
2023-04-30T19:05:14.660Z,99570.17
2023-04-30T19:07:42.528Z,99570.63
2023-04-30T19:10:10.585Z,99570.89
2023-04-30T19:12:38.735Z,99573.68
2023-04-30T19:15:08.374Z,99575.02
2023-04-30T19:17:36.559Z,99581.79
2023-04-30T19:20:05.493Z,99581.70
2023-04-30T19:22:33.399Z,99580.53
2023-04-30T19:25:01.984Z,99585.09
2023-04-30T19:27:29.908Z,99584.58
2023-04-30T19:29:58.051Z,99587.61
2023-04-30T19:32:26.440Z,99591.20
2023-04-30T19:34:54.587Z,99594.78
2023-04-30T19:37:22.982Z,99593.41
2023-04-30T19:39:50.959Z,99595.02
2023-04-30T19:42:18.899Z,99598.22
2023-04-30T19:44:46.836Z,99603.05
2023-04-30T19:47:14.773Z,99602.79
2023-04-30T19:49:42.951Z,99607.41
2023-04-30T19:52:10.854Z,99607.33
2023-04-30T19:54:38.820Z,99607.25
2023-04-30T19:57:07.715Z,99611.07
2023-04-30T19:59:35.632Z,99611.53
2023-04-30T20:02:03.615Z,99612.82
2023-04-30T20:04:31.603Z,99613.12
2023-04-30T20:07:01.104Z,99617.66
2023-04-30T20:09:29.073Z,99619.73
2023-04-30T20:11:57.067Z,99619.89
2023-04-30T20:14:25.007Z,99617.40
2023-04-30T20:16:54.865Z,99620.13
2023-04-30T20:19:22.942Z,99624.45
2023-04-30T20:21:51.059Z,99626.90
2023-04-30T20:24:19.191Z,99624.56
2023-04-30T20:26:47.768Z,99624.74
2023-04-30T20:29:15.922Z,99628.40
2023-04-30T20:31:43.852Z,99629.37
2023-04-30T20:34:11.890Z,99629.84
2023-04-30T20:36:39.934Z,99630.33
2023-04-30T20:39:08.738Z,99634.69
2023-04-30T20:41:36.657Z,99635.41
2023-04-30T20:44:05.820Z,99636.15
2023-04-30T20:46:33.825Z,99642.34
2023-04-30T20:49:04.513Z,99639.96
2023-04-30T20:51:32.551Z,99641.63
2023-04-30T20:54:00.525Z,99644.21
2023-04-30T20:56:28.539Z,99640.97
2023-04-30T20:58:56.514Z,99642.51
2023-04-30T21:01:24.648Z,99645.95
2023-04-30T21:03:52.753Z,99645.92
2023-04-30T21:06:21.059Z,99646.95
2023-04-30T21:08:49.444Z,99651.13
2023-04-30T21:11:18.989Z,99653.10
2023-04-30T21:16:14.999Z,99647.34
2023-04-30T21:18:44.482Z,99650.11
2023-04-30T21:21:12.396Z,99650.39
2023-04-30T21:23:41.392Z,99653.08
2023-04-30T21:26:09.332Z,99651.38
2023-04-30T21:28:37.453Z,99652.14
2023-04-30T21:31:07.321Z,99653.40
2023-04-30T21:33:36.949Z,99656.58
2023-04-30T21:36:05.277Z,99653.95
2023-04-30T21:38:34.283Z,99658.90
2023-04-30T21:41:02.218Z,99661.92
2023-04-30T21:43:30.180Z,99660.68
2023-04-30T21:46:02.724Z,99659.08
2023-04-30T21:48:30.865Z,99657.65
2023-04-30T21:50:58.754Z,99660.42
2023-04-30T21:53:27.021Z,99660.23
2023-04-30T21:55:54.944Z,99658.66
2023-04-30T21:58:22.788Z,99662.33
2023-04-30T22:00:50.800Z,99666.72
2023-04-30T22:03:18.885Z,99665.86
2023-04-30T22:05:47.479Z,99669.22
2023-04-30T22:08:15.510Z,99667.46
2023-04-30T22:10:43.448Z,99665.89
2023-04-30T22:13:11.444Z,99665.38
2023-04-30T22:15:47.593Z,99665.71
2023-04-30T22:18:16.261Z,99670.46
2023-04-30T22:20:44.545Z,99669.59
2023-04-30T22:23:12.682Z,99668.67
2023-04-30T22:25:40.567Z,99673.19
2023-04-30T22:28:10.178Z,99672.63
2023-04-30T22:30:39.487Z,99672.39
2023-04-30T22:33:07.750Z,99669.73
2023-04-30T22:35:38.090Z,99671.85
2023-04-30T22:38:06.771Z,99669.05
2023-04-30T22:40:39.416Z,99668.30
2023-04-30T22:43:09.537Z,99667.02
2023-04-30T22:45:40.365Z,99667.67
2023-04-30T22:48:09.828Z,99667.48
2023-04-30T22:50:38.171Z,99668.80
2023-04-30T22:53:06.595Z,99667.35
2023-04-30T22:55:35.050Z,99669.02
2023-04-30T22:58:02.925Z,99670.36
2023-04-30T23:00:30.842Z,99667.16
2023-04-30T23:02:58.749Z,99671.11
2023-04-30T23:05:26.777Z,99668.25
2023-04-30T23:07:54.666Z,99665.03
2023-04-30T23:10:22.578Z,99663.91
2023-04-30T23:12:50.440Z,99664.71
2023-04-30T23:15:18.386Z,99667.23
2023-04-30T23:17:46.373Z,99666.08
2023-04-30T23:20:14.505Z,99665.28
2023-04-30T23:22:42.508Z,99664.67
2023-04-30T23:25:10.349Z,99662.85
2023-04-30T23:27:38.250Z,99658.42
2023-04-30T23:30:07.002Z,99653.65
2023-04-30T23:32:34.924Z,99649.60
2023-04-30T23:35:03.460Z,99650.77
2023-04-30T23:37:31.468Z,99648.23
2023-04-30T23:40:00.873Z,99640.42
2023-04-30T23:42:28.730Z,99639.77
2023-04-30T23:44:56.589Z,99639.44
2023-04-30T23:47:24.492Z,99638.45
2023-04-30T23:49:52.628Z,99635.36
2023-04-30T23:52:20.513Z,99635.09
2023-04-30T23:54:49.197Z,99637.79
2023-04-30T23:57:17.180Z,99638.41
2023-04-30T23:59:45.307Z,99640.80
